Time;durP1;ratioP1;P1;durP2;ratioP2;P2;SDS_P1;SDS_P2;PMS_P1;PMS_P2;Temp;Humidity;BMP_temperature;BMP_pressure;BME280_temperature;BME280_humidity;BME280_pressure;Samples;Min_cycle;Max_cycle;Signal;HPM_P1;HPM_P2
2022/01/18 00:00:40;;;;;;;7.68;1.20;;;;;;;5.79;90.45;102327.03;4920338;29;20115;-75
2022/01/18 00:03:06;;;;;;;4.38;1.88;;;;;;;5.78;89.90;102325.34;4920195;29;20032;-76
2022/01/18 00:05:32;;;;;;;6.95;2.20;;;;;;;5.76;89.68;102322.78;4919574;29;20040;-75
2022/01/18 00:07:58;;;;;;;5.13;1.55;;;;;;;5.76;90.55;102309.41;4919082;29;20490;-75
2022/01/18 00:10:27;;;;;;;7.88;1.55;;;;;;;5.77;89.86;102311.13;4920140;29;20106;-76
2022/01/18 00:13:09;;;;;;;6.10;1.05;;;;;;;5.76;89.99;102313.91;4920142;29;20088;-76
2022/01/18 00:15:43;;;;;;;5.07;1.02;;;;;;;5.77;90.21;102313.78;4920063;29;20032;-76
2022/01/18 00:18:12;;;;;;;6.47;2.75;;;;;;;5.77;89.79;102311.13;4920173;29;20028;-75
2022/01/18 00:23:18;;;;;;;9.07;1.40;;;;;;;5.76;90.31;102320.13;4920087;29;20115;-76
2022/01/18 00:25:47;;;;;;;5.18;1.17;;;;;;;5.75;90.85;102323.75;4919442;29;20072;-76
2022/01/18 00:28:13;;;;;;;6.50;1.55;;;;;;;5.76;90.62;102324.63;4918754;29;20063;-75
2022/01/18 00:36:22;;;;;;;6.43;1.40;;;;;;;5.72;90.84;102336.56;4919438;29;20040;-76
2022/01/18 00:38:48;;;;;;;9.18;1.50;;;;;;;5.78;91.09;102342.25;4919729;29;20028;-76
2022/01/18 00:41:14;;;;;;;;;;;;;;;5.75;91.25;102342.50;4918830;29;20036;-75
2022/01/18 00:43:41;;;;;;;6.20;1.42;;;;;;;5.76;91.00;102352.22;4919405;29;19922;-76
2022/01/18 00:46:06;;;;;;;4.50;1.35;;;;;;;5.74;90.78;102348.81;4919175;29;20036;-76
2022/01/18 00:48:34;;;;;;;4.63;0.98;;;;;;;5.76;90.59;102349.53;4918319;29;20115;-76
2022/01/18 00:51:01;;;;;;;4.95;1.30;;;;;;;5.74;90.58;102345.28;4919318;29;20040;-76
2022/01/18 00:53:30;;;;;;;11.02;2.00;;;;;;;5.71;90.27;102354.44;4918143;29;20526;-75
2022/01/18 00:58:41;;;;;;;8.32;1.52;;;;;;;5.70;91.19;102357.25;4918895;29;20515;-76
2022/01/18 01:01:08;;;;;;;9.80;2.00;;;;;;;5.70;90.86;102365.25;4918977;29;20104;-76
2022/01/18 01:03:34;;;;;;;9.68;2.05;;;;;;;5.68;91.22;102365.38;4919319;29;20028;-76
2022/01/18 01:06:00;;;;;;;;;;;;;;;5.69;90.82;102363.56;4917351;29;20127;-76
2022/01/18 01:08:26;;;;;;;6.30;1.70;;;;;;;5.68;91.43;102362.72;4918995;29;20006;-76
2022/01/18 01:10:51;;;;;;;9.40;2.05;;;;;;;5.68;90.88;102369.88;4919011;29;20047;-76
2022/01/18 01:13:17;;;;;;;10.35;1.95;;;;;;;5.70;91.17;102375.97;4918962;29;20043;-75
2022/01/18 01:45:44;;;;;;;6.15;1.40;;;;;;;5.84;89.96;102379.19;4918511;29;20395;-75
2022/01/18 01:48:10;;;;;;;10.20;3.08;;;;;;;5.74;90.44;102375.56;4917294;29;20028;-76
2022/01/18 01:50:49;;;;;;;5.22;1.05;;;;;;;5.69;90.68;102376.94;4917926;29;20048;-76
2022/01/18 01:53:16;;;;;;;7.20;1.25;;;;;;;5.65;90.99;102376.31;4918193;29;20111;-76
2022/01/18 01:55:42;;;;;;;9.82;2.35;;;;;;;5.69;91.09;102376.94;4918097;29;20036;-76
2022/01/18 01:58:08;;;;;;;10.43;2.75;;;;;;;5.67;90.57;102385.06;4916897;29;20487;-75
2022/01/18 02:00:40;;;;;;;2.55;0.73;;;;;;;5.67;91.08;102374.38;4918289;29;20039;-76
2022/01/18 02:03:05;;;;;;;13.57;2.30;;;;;;;5.68;91.02;102375.22;4917049;29;20020;-76
2022/01/18 02:05:30;;;;;;;8.53;1.83;;;;;;;5.66;90.96;102378.03;4917845;29;20447;-76
2022/01/18 02:07:56;;;;;;;12.40;2.33;;;;;;;5.68;91.44;102377.91;4918466;29;20347;-76
2022/01/18 02:10:21;;;;;;;4.03;1.37;;;;;;;5.66;90.73;102378.03;4916868;29;20533;-75
2022/01/18 02:12:46;;;;;;;13.48;1.95;;;;;;;5.64;91.44;102379.13;4917796;29;20024;-75
2022/01/18 02:15:16;;;;;;;6.97;1.20;;;;;;;5.64;91.20;102374.63;4917715;29;20051;-76
2022/01/18 02:23:24;;;;;;;9.75;1.48;;;;;;;5.58;91.00;102364.41;4917558;29;20086;-76
2022/01/18 02:25:49;;;;;;;11.20;2.17;;;;;;;5.61;91.04;102366.00;4918075;29;20476;-76
2022/01/18 02:28:18;;;;;;;6.43;1.25;;;;;;;5.60;91.58;102362.47;4917801;29;20043;-76
2022/01/18 02:30:44;;;;;;;5.80;1.52;;;;;;;5.61;91.42;102348.13;4918228;29;20043;-75
2022/01/18 02:33:10;;;;;;;6.45;1.00;;;;;;;5.58;91.11;102353.72;4917385;29;20083;-76
2022/01/18 02:35:36;;;;;;;4.72;1.05;;;;;;;5.62;90.93;102355.19;4917364;29;20032;-76
2022/01/18 02:38:02;;;;;;;7.82;1.27;;;;;;;5.74;90.26;102359.50;4917940;29;20046;-76
2022/01/18 02:40:28;;;;;;;13.85;1.90;;;;;;;5.78;89.97;102355.63;4917420;29;20148;-76
2022/01/18 02:42:58;;;;;;;8.60;1.65;;;;;;;5.68;90.41;102353.84;4917473;29;20043;-76
2022/01/18 02:45:23;;;;;;;11.88;3.13;;;;;;;5.71;90.63;102348.25;4917676;29;20036;-75
2022/01/18 02:47:50;;;;;;;7.68;1.55;;;;;;;5.74;90.23;102354.16;4917558;29;20056;-76
2022/01/18 02:50:20;;;;;;;6.05;1.67;;;;;;;5.76;90.94;102356.72;4917361;29;20035;-75
2022/01/18 02:52:46;;;;;;;7.35;1.23;;;;;;;5.75;90.03;102363.03;4917162;29;20036;-75
2022/01/18 02:55:11;;;;;;;11.93;1.37;;;;;;;5.67;90.76;102358.34;4917324;29;20123;-75
2022/01/18 02:57:44;;;;;;;5.90;1.23;;;;;;;5.60;91.09;102359.78;4915775;29;20316;-76
2022/01/18 03:00:19;;;;;;;5.97;1.65;;;;;;;5.57;90.83;102360.03;4917217;29;20056;-75
2022/01/18 03:05:28;;;;;;;11.05;2.00;;;;;;;5.51;91.39;102361.41;4916882;29;20047;-75
2022/01/18 03:07:54;;;;;;;7.45;2.08;;;;;;;5.48;91.21;102359.00;4916931;29;20387;-76
2022/01/18 03:10:19;;;;;;;14.40;1.63;;;;;;;5.51;91.43;102361.41;4917123;29;20119;-75
2022/01/18 03:12:46;;;;;;;6.13;1.40;;;;;;;5.49;91.48;102363.38;4917238;29;20107;-75
2022/01/18 03:15:11;;;;;;;8.82;1.90;;;;;;;5.52;90.93;102367.63;4916768;29;20040;-75
2022/01/18 03:17:37;;;;;;;8.80;1.70;;;;;;;5.49;91.19;102365.19;4917086;29;20028;-76
2022/01/18 03:20:05;;;;;;;11.82;2.10;;;;;;;5.50;91.11;102369.56;4916995;29;20040;-76
2022/01/18 03:22:30;;;;;;;7.00;1.88;;;;;;;5.52;91.23;102375.63;4916950;29;20456;-76
2022/01/18 03:25:14;;;;;;;4.43;1.98;;;;;;;5.52;91.22;102381.84;4917049;29;20038;-75
2022/01/18 03:30:23;;;;;;;5.57;1.65;;;;;;;5.53;90.91;102374.66;4921447;29;20083;-76
2022/01/18 03:32:48;;;;;;;9.40;2.47;;;;;;;5.56;91.63;102374.38;4923030;29;20043;-76
2022/01/18 03:35:14;;;;;;;5.80;1.00;;;;;;;5.64;90.91;102377.31;4922915;29;20036;-75
2022/01/18 03:37:42;;;;;;;5.72;1.88;;;;;;;5.79;90.16;102373.38;4923232;29;20087;-75
2022/01/18 03:40:09;;;;;;;9.80;1.80;;;;;;;5.82;90.84;102372.28;4921761;29;20493;-76
2022/01/18 03:42:41;;;;;;;;;;;;;;;5.60;90.13;102370.50;4923209;29;20356;-76
2022/01/18 03:45:09;;;;;;;10.77;2.20;;;;;;;5.65;89.90;102368.31;4922230;29;19950;-76
2022/01/18 03:47:35;;;;;;;9.88;1.42;;;;;;;5.56;89.95;102379.72;4922781;29;20379;-75
2022/01/18 03:50:01;;;;;;;4.15;1.17;;;;;;;5.48;90.33;102372.34;4923113;29;20042;-75
2022/01/18 03:52:27;;;;;;;8.30;1.85;;;;;;;5.48;90.18;102374.19;4923044;29;20040;-76
2022/01/18 03:54:53;;;;;;;2.40;0.90;;;;;;;5.59;89.39;102383.00;4923110;29;20119;-75
2022/01/18 03:57:19;;;;;;;6.03;1.48;;;;;;;5.62;90.15;102373.06;4922993;29;20048;-75
2022/01/18 03:59:45;;;;;;;7.40;1.27;;;;;;;5.51;89.39;102377.47;4922787;29;20028;-75
2022/01/18 04:02:10;;;;;;;;;;;;;;;5.50;90.13;102385.59;4923301;29;20032;-75
2022/01/18 04:04:37;;;;;;;10.40;1.55;;;;;;;5.52;90.15;102394.34;4922728;29;20313;-76
2022/01/18 04:07:03;;;;;;;11.68;2.00;;;;;;;5.47;89.62;102389.38;4922594;29;20111;-76
2022/01/18 04:09:29;;;;;;;;;;;;;;;5.43;89.67;102393.25;4923361;29;20039;-76
2022/01/18 04:11:54;;;;;;;3.95;1.00;;;;;;;5.43;89.81;102398.59;4922827;29;19915;-76
2022/01/18 04:14:19;;;;;;;15.40;1.87;;;;;;;5.41;90.21;102394.34;4922663;29;20407;-75
2022/01/18 04:17:11;;;;;;;4.18;0.90;;;;;;;5.41;89.94;102397.03;4922800;29;20106;-76
2022/01/18 04:27:32;;;;;;;10.05;1.73;;;;;;;5.39;90.85;102393.63;4922773;29;20158;-76
2022/01/18 04:29:58;;;;;;;8.90;1.23;;;;;;;5.37;90.67;102385.75;4922559;29;20036;-76
2022/01/18 04:32:23;;;;;;;5.20;1.40;;;;;;;5.33;91.32;102392.31;4922474;29;20131;-75
2022/01/18 04:34:49;;;;;;;6.10;1.97;;;;;;;5.32;91.18;102384.41;4922423;29;20268;-76
2022/01/18 04:37:14;;;;;;;5.70;1.73;;;;;;;5.31;91.63;102377.34;4922639;29;20261;-76
2022/01/18 04:39:42;;;;;;;2.08;0.90;;;;;;;5.31;91.96;102369.34;4922868;29;20030;-75
2022/01/18 04:42:14;;;;;;;4.97;1.13;;;;;;;5.31;91.47;102377.34;4919861;29;20072;-76
2022/01/18 04:50:08;;;;;;;9.43;1.42;;;;;;;5.30;91.31;102371.16;4919339;29;20047;-76
2022/01/18 04:52:34;;;;;;;2.92;0.98;;;;;;;5.32;91.74;102384.41;4919508;29;20060;-76
2022/01/18 04:55:01;;;;;;;9.43;1.63;;;;;;;5.31;91.49;102380.03;4919337;29;20070;-76
2022/01/18 05:00:11;;;;;;;4.25;1.90;;;;;;;5.31;91.38;102388.06;4918998;29;20180;-76
2022/01/18 05:02:37;;;;;;;6.85;1.17;;;;;;;5.31;92.16;102396.06;4919244;29;20028;-75
2022/01/18 05:05:03;;;;;;;14.73;3.30;;;;;;;5.33;91.96;102399.47;4919063;29;20398;-76
2022/01/18 05:07:28;;;;;;;10.60;1.63;;;;;;;5.34;91.36;102399.34;4919360;29;20039;-76
2022/01/18 05:09:54;;;;;;;8.68;1.30;;;;;;;5.33;91.68;102396.81;4919181;29;20028;-76
2022/01/18 05:12:34;;;;;;;16.80;1.88;;;;;;;5.36;91.67;102402.75;4919067;29;20036;-77
2022/01/18 05:15:06;;;;;;;12.30;2.03;;;;;;;5.37;92.16;102404.47;4919293;29;20372;-76
2022/01/18 05:17:46;;;;;;;11.90;2.78;;;;;;;5.35;91.94;102406.41;4919032;29;20032;-76
2022/01/18 05:20:37;;;;;;;8.75;1.70;;;;;;;5.32;92.07;102411.13;4917723;29;20032;-75
2022/01/18 05:23:02;;;;;;;10.18;2.35;;;;;;;5.27;92.37;102407.97;4918524;29;20032;-75
2022/01/18 05:25:29;;;;;;;12.23;1.88;;;;;;;5.29;92.48;102420.25;4918745;29;20157;-76
2022/01/18 05:27:56;;;;;;;15.82;2.17;;;;;;;5.27;92.84;102422.19;4918912;29;20032;-76
2022/01/18 05:30:21;;;;;;;10.80;1.85;;;;;;;5.32;93.31;102421.84;4917982;29;20048;-76
2022/01/18 05:32:46;;;;;;;10.93;1.48;;;;;;;5.29;93.16;102416.72;4918926;29;20039;-76
2022/01/18 05:35:12;;;;;;;6.88;1.95;;;;;;;5.29;92.89;102422.91;4918629;29;20545;-75
2022/01/18 05:37:37;;;;;;;13.70;2.42;;;;;;;5.32;92.45;102420.00;4918649;29;20107;-76
2022/01/18 05:40:03;;;;;;;7.43;1.67;;;;;;;5.31;92.96;102420.13;4918741;29;20032;-76
2022/01/18 05:42:28;;;;;;;7.63;1.88;;;;;;;5.30;92.06;102421.94;4918630;29;20411;-76
2022/01/18 05:44:54;;;;;;;8.77;2.88;;;;;;;5.34;92.29;102417.22;4918877;29;20048;-76
2022/01/18 05:47:19;;;;;;;9.13;1.57;;;;;;;5.37;92.38;102412.47;4918524;29;20091;-76
2022/01/18 05:49:44;;;;;;;9.35;2.33;;;;;;;5.32;92.27;102422.69;4918279;29;20027;-76
2022/01/18 05:52:10;;;;;;;10.73;2.25;;;;;;;5.34;92.55;102417.22;4917758;29;20036;-76
2022/01/18 05:54:35;;;;;;;7.38;1.67;;;;;;;5.36;92.41;102428.63;4918169;29;20088;-76
2022/01/18 05:57:00;;;;;;;10.80;2.40;;;;;;;5.38;92.42;102432.88;4918204;29;20098;-76
2022/01/18 05:59:34;;;;;;;9.90;2.43;;;;;;;5.42;92.62;102433.47;4919501;29;20509;-76
2022/01/18 06:02:03;;;;;;;10.10;2.25;;;;;;;5.41;92.70;102423.75;4917944;29;20519;-76
2022/01/18 06:07:20;;;;;;;9.88;3.17;;;;;;;5.45;93.16;102420.72;4909461;29;20056;-76
2022/01/18 06:09:46;;;;;;;9.47;2.30;;;;;;;5.56;91.86;102425.19;4917397;29;20036;-76
2022/01/18 06:12:11;;;;;;;8.23;2.83;;;;;;;5.52;92.33;102421.94;4916157;29;20299;-75
2022/01/18 06:14:36;;;;;;;35.07;4.37;;;;;;;5.46;91.91;102424.25;4917693;29;20036;-76
2022/01/18 06:17:02;;;;;;;23.95;3.97;;;;;;;5.35;92.67;102419.78;4917692;29;20032;-76
2022/01/18 06:19:27;;;;;;;11.75;3.40;;;;;;;5.34;92.23;102418.06;4917102;29;20079;-76
2022/01/18 06:21:52;;;;;;;11.30;2.90;;;;;;;5.34;93.26;102415.41;4916965;29;20038;-75
2022/01/18 06:24:18;;;;;;;13.87;3.97;;;;;;;5.35;92.53;102416.25;4916186;29;21241;-76
2022/01/18 06:26:43;;;;;;;11.63;2.92;;;;;;;5.39;93.25;102423.03;4917544;29;20494;-76
2022/01/18 06:29:09;;;;;;;12.93;3.10;;;;;;;5.36;92.46;102423.28;4915854;29;20103;-76
2022/01/18 06:31:34;;;;;;;14.07;4.07;;;;;;;5.35;92.72;102409.06;4917226;29;20028;-75
2022/01/18 06:34:00;;;;;;;17.83;4.45;;;;;;;5.37;93.43;102420.50;4915316;29;20099;-76
2022/01/18 06:36:25;;;;;;;16.58;4.70;;;;;;;5.34;92.86;102426.09;4917167;29;20035;-76
2022/01/18 06:38:50;;;;;;;14.05;3.45;;;;;;;5.33;92.96;102418.19;4916793;29;20067;-76
2022/01/18 06:41:16;;;;;;;11.87;3.43;;;;;;;5.33;92.86;102432.41;4916731;29;20087;-76
2022/01/18 06:43:41;;;;;;;19.20;4.30;;;;;;;5.33;93.29;102426.22;4916557;29;20036;-76
2022/01/18 06:46:06;;;;;;;13.65;4.03;;;;;;;5.33;93.41;102424.38;4917182;29;20036;-76
2022/01/18 06:48:32;;;;;;;12.75;3.78;;;;;;;5.33;92.90;102429.72;4917042;29;20031;-76
2022/01/18 06:50:57;;;;;;;15.18;4.45;;;;;;;5.30;93.12;102434.47;4916683;29;20048;-76
2022/01/18 06:53:23;;;;;;;18.23;4.53;;;;;;;5.26;93.38;102433.00;4916388;29;20039;-75
2022/01/18 06:55:52;;;;;;;18.23;4.30;;;;;;;5.26;93.92;102433.00;4916789;29;20478;-76
2022/01/18 06:58:17;;;;;;;12.02;3.60;;;;;;;5.28;93.31;102431.91;4916803;29;20071;-76
2022/01/18 07:00:43;;;;;;;14.18;4.60;;;;;;;5.29;93.64;102438.09;4916123;29;20032;-75
2022/01/18 07:03:08;;;;;;;16.43;4.33;;;;;;;5.28;93.61;102441.75;4916480;29;20463;-75
2022/01/18 07:05:33;;;;;;;15.93;3.93;;;;;;;5.28;93.77;102444.41;4915507;29;20735;-76
2022/01/18 07:07:59;;;;;;;10.52;3.42;;;;;;;5.30;93.68;102445.16;4915817;29;20272;-76
2022/01/18 07:10:25;;;;;;;14.40;4.53;;;;;;;5.28;93.15;102439.06;4915728;29;20127;-76
2022/01/18 07:12:55;;;;;;;11.63;3.63;;;;;;;5.28;93.48;102439.94;4916108;29;20115;-76
2022/01/18 07:15:21;;;;;;;13.40;4.22;;;;;;;5.27;93.56;102443.56;4916201;29;20040;-76
2022/01/18 07:17:46;;;;;;;18.05;4.80;;;;;;;5.28;93.85;102436.41;4915923;29;20045;-75
2022/01/18 07:20:11;;;;;;;15.20;4.13;;;;;;;5.27;93.59;102434.69;4915483;29;20078;-76
2022/01/18 07:22:37;;;;;;;13.23;4.40;;;;;;;5.23;94.41;102439.44;4915936;29;20327;-76
2022/01/18 07:25:10;;;;;;;13.70;4.07;;;;;;;5.31;94.24;102438.84;4914775;29;20119;-76
2022/01/18 07:27:35;;;;;;;18.90;5.38;;;;;;;5.34;94.15;102442.13;4916229;29;20464;-76
2022/01/18 07:30:01;;;;;;;14.30;4.10;;;;;;;5.50;93.65;102441.75;4916214;29;20074;-76
2022/01/18 07:32:26;;;;;;;13.00;3.97;;;;;;;5.47;93.54;102450.00;4916023;29;20712;-75
2022/01/18 07:34:53;;;;;;;14.15;4.82;;;;;;;5.47;92.62;102445.50;4916650;29;20264;-75
2022/01/18 07:37:20;;;;;;;15.48;5.00;;;;;;;5.70;94.20;102442.81;4916914;29;20028;-78
2022/01/18 07:39:46;;;;;;;18.63;4.53;;;;;;;5.71;93.21;102449.88;4916797;29;20032;-79
2022/01/18 07:42:11;;;;;;;15.13;5.07;;;;;;;5.76;92.65;102453.84;4917066;29;20392;-78
2022/01/18 07:44:36;;;;;;;18.33;5.10;;;;;;;5.68;92.54;102448.28;4915313;29;20028;-76
2022/01/18 07:47:02;;;;;;;24.50;5.78;;;;;;;5.54;92.23;102460.09;4914841;29;20330;-76
2022/01/18 07:49:28;;;;;;;12.80;5.05;;;;;;;5.50;93.06;102463.13;4915970;29;20037;-76
2022/01/18 07:51:53;;;;;;;15.63;4.35;;;;;;;5.41;93.29;102466.53;4915766;29;20040;-76
2022/01/18 07:54:18;;;;;;;14.63;4.63;;;;;;;5.37;93.19;102467.78;4914573;29;20380;-76
2022/01/18 07:56:44;;;;;;;12.37;4.30;;;;;;;5.43;93.00;102468.13;4915328;29;20403;-75
2022/01/18 07:59:11;;;;;;;10.82;4.18;;;;;;;5.45;93.36;102462.66;4915491;29;20268;-76
2022/01/18 08:01:37;;;;;;;20.65;4.80;;;;;;;5.41;92.92;102464.72;4914694;29;20040;-76
2022/01/18 08:04:02;;;;;;;;;;;;;;;5.46;92.74;102467.03;4916347;29;20119;-75
2022/01/18 08:06:28;;;;;;;17.40;4.32;;;;;;;5.45;93.23;102468.84;4915831;29;20002;-77
2022/01/18 08:08:53;;;;;;;19.08;5.50;;;;;;;5.48;92.89;102468.59;4915816;29;20028;-76
2022/01/18 08:11:18;;;;;;;19.10;4.53;;;;;;;5.47;92.31;102472.25;4915508;29;20039;-76
2022/01/18 08:13:48;;;;;;;12.90;4.60;;;;;;;5.43;93.06;102472.59;4914403;29;20876;-76
2022/01/18 08:18:56;;;;;;;14.02;3.85;;;;;;;5.48;92.53;102470.44;4919287;29;20036;-77
2022/01/18 08:21:22;;;;;;;13.55;4.18;;;;;;;5.48;92.81;102475.78;4918887;29;20546;-80
2022/01/18 08:23:48;;;;;;;17.15;5.03;;;;;;;5.48;93.41;102473.09;4918843;29;20061;-77
2022/01/18 08:26:13;;;;;;;18.23;5.78;;;;;;;5.47;93.09;102477.59;4919129;29;20063;-76
2022/01/18 08:28:39;;;;;;;16.50;5.55;;;;;;;5.44;92.87;102477.84;4919118;29;20036;-77
2022/01/18 08:31:04;;;;;;;21.45;6.10;;;;;;;5.50;92.95;102477.38;4919161;29;20040;-77
2022/01/18 08:33:31;;;;;;;14.95;5.70;;;;;;;5.52;93.00;102478.09;4919644;29;20043;-77
2022/01/18 08:35:59;;;;;;;12.23;4.57;;;;;;;5.57;92.90;102477.69;4917961;29;20036;-77
2022/01/18 08:38:28;;;;;;;15.80;5.53;;;;;;;5.54;92.41;102475.31;4919515;29;20047;-77
2022/01/18 08:40:54;;;;;;;15.18;5.43;;;;;;;5.64;92.51;102470.91;4919024;29;20443;-77
2022/01/18 08:43:20;;;;;;;;;;;;;;;5.87;93.19;102477.09;4918242;29;20483;-77
2022/01/18 08:45:45;;;;;;;20.67;5.03;;;;;;;6.02;91.77;102477.69;4917844;29;20002;-77
2022/01/18 08:48:10;;;;;;;17.35;6.07;;;;;;;5.78;91.25;102481.34;4919367;29;20526;-77
2022/01/18 08:50:36;;;;;;;19.50;6.20;;;;;;;5.74;91.69;102484.38;4917589;29;20044;-76
2022/01/18 08:53:01;;;;;;;17.27;6.00;;;;;;;5.89;91.61;102483.19;4914809;29;20652;-76
2022/01/18 08:55:27;;;;;;;16.52;5.55;;;;;;;5.98;90.73;102487.78;4918922;29;20032;-76
2022/01/18 08:57:52;;;;;;;14.77;4.75;;;;;;;5.94;91.20;102478.31;4917083;29;20052;-76
2022/01/18 09:00:19;;;;;;;15.73;5.32;;;;;;;6.15;90.12;102486.41;4918774;29;20036;-76
2022/01/18 09:02:44;;;;;;;13.85;5.57;;;;;;;6.05;90.34;102488.16;4918815;29;20028;-77
2022/01/18 09:05:10;;;;;;;13.90;4.78;;;;;;;6.25;90.41;102487.38;4919174;29;20036;-76
2022/01/18 09:07:37;;;;;;;17.10;5.78;;;;;;;6.13;90.32;102477.66;4917109;29;20527;-77
2022/01/18 09:10:07;;;;;;;19.20;5.57;;;;;;;6.17;89.98;102479.97;4915705;29;20028;-77
2022/01/18 09:12:36;;;;;;;30.85;10.18;;;;;;;6.47;88.61;102486.41;4918459;29;20044;-77
2022/01/18 09:15:05;;;;;;;18.52;6.25;;;;;;;6.30;89.26;102486.97;4917386;29;20114;-76
2022/01/18 09:17:32;;;;;;;11.32;4.53;;;;;;;6.10;89.93;102488.59;4916840;29;20028;-76
2022/01/18 09:19:58;;;;;;;15.70;4.82;;;;;;;6.06;90.35;102496.06;4918209;29;20454;-76
2022/01/18 09:22:24;;;;;;;14.95;5.10;;;;;;;6.07;90.42;102494.22;4918527;29;20059;-76
2022/01/18 09:24:49;;;;;;;18.85;6.07;;;;;;;6.06;89.93;102497.88;4917046;29;20059;-76
2022/01/18 09:27:15;;;;;;;22.80;6.55;;;;;;;6.09;90.93;102497.63;4917454;29;20032;-76
2022/01/18 09:29:41;;;;;;;18.55;6.13;;;;;;;6.13;90.65;102509.78;4918134;29;20122;-76
2022/01/18 09:32:07;;;;;;;17.25;6.25;;;;;;;6.11;89.99;102509.03;4918154;29;20050;-77
2022/01/18 09:34:33;;;;;;;15.68;5.15;;;;;;;6.08;89.69;102512.00;4918341;29;20032;-76
2022/01/18 09:36:59;;;;;;;14.38;5.80;;;;;;;6.09;90.53;102511.03;4918405;29;20043;-76
2022/01/18 09:39:25;;;;;;;20.38;6.72;;;;;;;6.06;90.34;102519.28;4918405;29;20088;-76
2022/01/18 09:41:53;;;;;;;18.52;6.95;;;;;;;6.14;90.92;102514.16;4918076;29;20034;-77
2022/01/18 09:44:19;;;;;;;21.95;6.10;;;;;;;6.17;90.20;102517.44;4917100;29;20024;-76
2022/01/18 09:46:51;;;;;;;16.35;5.28;;;;;;;6.15;89.90;102521.22;4918105;29;20452;-76
2022/01/18 09:49:18;;;;;;;12.15;5.70;;;;;;;6.24;90.56;102528.50;4917998;29;20032;-76
2022/01/18 09:51:44;;;;;;;16.92;6.43;;;;;;;6.27;89.71;102526.41;4917870;29;20428;-76
2022/01/18 09:54:10;;;;;;;18.27;7.10;;;;;;;6.24;89.99;102532.03;4917733;29;20032;-76
2022/01/18 09:56:36;;;;;;;19.75;6.13;;;;;;;6.29;89.27;102531.63;4917687;29;20039;-79
2022/01/18 09:59:03;;;;;;;20.20;7.05;;;;;;;6.46;89.92;102527.56;4920244;29;20051;-79
2022/01/18 10:01:29;;;;;;;21.20;6.30;;;;;;;6.43;89.67;102528.69;4919494;29;20119;-79
2022/01/18 10:04:22;;;;;;;12.45;5.18;;;;;;;6.39;89.20;102527.25;4919609;29;20055;-79
2022/01/18 10:06:56;;;;;;;13.93;6.47;;;;;;;6.45;89.15;102523.22;4919399;29;20028;-79
2022/01/18 10:09:23;;;;;;;15.30;5.60;;;;;;;6.57;88.84;102524.88;4919692;29;20079;-79
2022/01/18 10:12:13;;;;;;;15.02;5.65;;;;;;;6.61;88.42;102519.13;4919452;29;20044;-79
2022/01/18 10:14:43;;;;;;;18.10;6.55;;;;;;;6.65;88.91;102517.03;4919310;29;20036;-79
2022/01/18 10:17:10;;;;;;;13.57;5.70;;;;;;;6.63;89.06;102515.47;4919298;29;20028;-79
2022/01/18 10:19:48;;;;;;;18.70;6.32;;;;;;;6.62;88.42;102514.63;4916430;29;20140;-76
2022/01/18 10:22:27;;;;;;;15.93;6.25;;;;;;;6.57;88.01;102520.38;4917399;29;20032;-77
2022/01/18 10:24:53;;;;;;;20.08;6.95;;;;;;;6.53;88.43;102516.22;4917382;29;20455;-75
2022/01/18 10:27:19;;;;;;;16.38;6.45;;;;;;;6.56;88.18;102510.63;4917702;29;20106;-75
2022/01/18 10:29:50;;;;;;;18.05;6.95;;;;;;;6.54;87.88;102514.41;4917162;29;20036;-77
2022/01/18 10:32:20;;;;;;;19.02;5.60;;;;;;;6.55;87.70;102510.75;4917103;29;20172;-75
2022/01/18 10:37:19;;;;;;;14.18;5.05;;;;;;;6.54;87.58;102517.09;4917465;29;20040;-76
2022/01/18 10:39:50;;;;;;;14.50;5.57;;;;;;;6.56;87.63;102507.94;4917466;29;20046;-76
2022/01/18 10:42:27;;;;;;;15.60;5.70;;;;;;;6.59;86.76;102506.84;4916047;29;20052;-76
2022/01/18 10:45:14;;;;;;;18.38;5.63;;;;;;;6.60;86.96;102509.41;4917152;29;20032;-75
2022/01/18 10:48:15;;;;;;;15.73;5.53;;;;;;;6.61;86.85;102510.25;4915541;29;20106;-76
2022/01/18 10:50:46;;;;;;;13.00;5.18;;;;;;;6.63;86.95;102505.59;4902965;29;20047;-76
2022/01/18 10:53:12;;;;;;;16.90;6.75;;;;;;;6.64;86.63;102496.56;4915591;29;20043;-76
2022/01/18 10:55:38;;;;;;;15.18;5.25;;;;;;;6.68;86.74;102497.16;4916974;29;20044;-75
2022/01/18 10:58:14;;;;;;;14.93;4.78;;;;;;;6.71;86.15;102492.41;4917083;29;20063;-76
2022/01/18 11:00:40;;;;;;;14.48;5.50;;;;;;;6.74;86.28;102491.31;4915968;29;20074;-75
2022/01/18 11:03:10;;;;;;;17.60;5.35;;;;;;;6.68;85.95;102492.66;4915693;29;20071;-76
2022/01/18 11:05:38;;;;;;;12.95;5.00;;;;;;;6.61;85.51;102484.31;4916771;29;20119;-76
2022/01/18 11:08:06;;;;;;;13.68;5.28;;;;;;;6.65;85.33;102495.59;4916812;29;20390;-76
2022/01/18 11:10:43;;;;;;;14.07;3.65;;;;;;;6.55;84.33;102487.50;4916579;29;20040;-76
2022/01/18 11:13:22;;;;;;;10.48;3.63;;;;;;;6.54;84.47;102487.63;4916850;29;20417;-76
2022/01/18 11:16:01;;;;;;;11.32;3.85;;;;;;;6.49;84.93;102484.47;4916594;29;20078;-76
2022/01/18 11:18:31;;;;;;;12.02;4.90;;;;;;;6.53;85.00;102485.91;4916620;29;20050;-75
2022/01/18 11:20:57;;;;;;;14.45;5.05;;;;;;;6.57;84.53;102485.53;4916952;29;20386;-75
2022/01/18 11:23:24;;;;;;;17.30;5.15;;;;;;;6.50;84.70;102476.31;4915507;29;20039;-76
2022/01/18 11:25:51;;;;;;;13.57;5.00;;;;;;;6.57;84.25;102480.19;4915296;29;20047;-76
2022/01/18 11:28:17;;;;;;;15.30;5.88;;;;;;;6.62;84.89;102471.78;4916698;29;20462;-76
2022/01/18 11:30:44;;;;;;;20.45;4.80;;;;;;;6.68;84.96;102473.91;4916940;29;20072;-76
2022/01/18 11:33:14;;;;;;;15.05;4.95;;;;;;;6.73;85.02;102470.84;4916594;29;20058;-76
2022/01/18 11:36:02;;;;;;;20.27;5.57;;;;;;;6.79;85.26;102465.84;4917212;29;20111;-79
2022/01/18 11:38:35;;;;;;;16.95;5.93;;;;;;;6.79;84.33;102468.50;4917672;29;20032;-77
2022/01/18 11:41:05;;;;;;;14.52;5.68;;;;;;;6.74;84.99;102469.88;4916604;29;20034;-77
2022/01/18 11:43:44;;;;;;;15.50;6.05;;;;;;;6.65;85.19;102465.28;4917234;29;20029;-77
2022/01/18 11:46:30;;;;;;;15.48;5.35;;;;;;;6.73;85.23;102474.38;4917300;29;20040;-77
2022/01/18 11:49:21;;;;;;;15.15;5.88;;;;;;;6.66;85.06;102472.34;4916899;29;20028;-77
2022/01/18 11:52:16;;;;;;;21.48;6.18;;;;;;;6.75;85.06;102466.22;4920061;29;20032;-77
2022/01/18 11:57:21;;;;;;;20.20;6.55;;;;;;;6.80;84.84;102459.50;4919861;29;20063;-77
2022/01/18 11:59:47;;;;;;;25.50;7.22;;;;;;;6.80;84.82;102462.19;4919961;29;20427;-77
2022/01/18 12:02:29;;;;;;;23.50;6.68;;;;;;;6.84;84.49;102460.06;4919948;29;20028;-76
2022/01/18 12:04:57;;;;;;;22.00;8.25;;;;;;;6.77;84.71;102456.22;4920025;29;20032;-77
2022/01/18 12:07:36;;;;;;;18.67;7.05;;;;;;;6.87;84.96;102455.28;4920212;29;20070;-77
2022/01/18 12:10:08;;;;;;;18.42;7.43;;;;;;;6.90;84.63;102451.50;4919821;29;20040;-77
2022/01/18 12:12:39;;;;;;;18.13;7.38;;;;;;;6.94;84.36;102447.59;4919876;29;20036;-77
2022/01/18 12:15:26;;;;;;;19.75;7.10;;;;;;;6.98;84.35;102454.41;4919681;29;20379;-77
2022/01/18 12:18:04;;;;;;;17.27;6.97;;;;;;;6.96;83.81;102457.19;4919766;29;20390;-76
2022/01/18 12:20:45;;;;;;;22.13;6.38;;;;;;;7.03;84.53;102445.94;4918968;29;20415;-77
2022/01/18 12:23:22;;;;;;;18.77;7.40;;;;;;;7.07;84.08;102444.69;4918645;29;20036;-77
2022/01/18 12:26:00;;;;;;;21.92;7.53;;;;;;;7.05;83.11;102443.97;4919867;29;20040;-77
2022/01/18 12:28:57;;;;;;;19.70;8.45;;;;;;;7.06;82.80;102445.66;4918459;29;20149;-77
2022/01/18 12:34:28;;;;;;;18.42;7.20;;;;;;;7.08;82.61;102441.03;4908917;29;20051;-77
2022/01/18 12:36:54;;;;;;;21.40;7.70;;;;;;;7.31;81.72;102442.56;4919247;29;20530;-77
2022/01/18 12:39:19;;;;;;;28.40;9.03;;;;;;;7.24;82.25;102436.03;4921056;29;20068;-77
2022/01/18 12:41:50;;;;;;;27.05;8.25;;;;;;;7.23;82.54;102434.34;4920212;29;20047;-76
2022/01/18 12:44:21;;;;;;;25.80;8.65;;;;;;;7.23;81.58;102437.84;4919213;29;20063;-76
2022/01/18 12:46:59;;;;;;;23.13;9.75;;;;;;;7.10;81.94;102431.03;4919030;29;20036;-75
2022/01/18 12:49:26;;;;;;;22.80;8.57;;;;;;;7.07;82.49;102434.81;4918920;29;20040;-77
2022/01/18 12:51:56;;;;;;;29.00;9.05;;;;;;;7.06;83.16;102432.28;4919015;29;20040;-75
2022/01/18 12:54:39;;;;;;;24.42;8.32;;;;;;;7.09;83.24;102429.31;4918744;29;20036;-73
2022/01/18 12:57:18;;;;;;;23.98;8.75;;;;;;;7.08;82.42;102427.63;4918968;29;20055;-76